createdAt,value
2022-09-03T00:00:10.947Z,49.50
2022-09-03T00:01:51.885Z,49.50
2022-09-03T00:03:33.145Z,49.40
2022-09-03T00:05:14.579Z,49.50
2022-09-03T00:06:57.110Z,49.50
2022-09-03T00:08:40.734Z,49.70
2022-09-03T00:10:23.706Z,49.90
2022-09-03T00:12:10.856Z,49.90
2022-09-03T00:13:52.300Z,50.00
2022-09-03T00:15:26.152Z,49.90
2022-09-03T00:17:06.771Z,49.80
2022-09-03T00:18:49.814Z,50.00
2022-09-03T00:20:32.435Z,50.20
2022-09-03T00:22:14.771Z,50.20
2022-09-03T00:23:51.529Z,50.20
2022-09-03T00:25:35.004Z,50.30
2022-09-03T00:27:19.678Z,50.40
2022-09-03T00:28:59.967Z,50.50
2022-09-03T00:30:35.937Z,50.40
2022-09-03T00:32:19.554Z,50.40
2022-09-03T00:33:59.251Z,50.60
2022-09-03T00:35:42.000Z,50.60
2022-09-03T00:37:15.982Z,50.60
2022-09-03T00:38:49.600Z,50.70
2022-09-03T00:40:44.731Z,50.60
2022-09-03T00:42:41.028Z,50.90
2022-09-03T00:44:45.350Z,50.90
2022-09-03T00:46:28.038Z,51.00
2022-09-03T00:48:17.594Z,50.60
2022-09-03T00:50:05.557Z,50.80
2022-09-03T00:51:51.873Z,50.90
2022-09-03T00:53:36.304Z,51.00
2022-09-03T00:55:24.976Z,51.00
2022-09-03T00:57:17.363Z,51.10
2022-09-03T00:59:16.463Z,51.20
2022-09-03T01:00:55.808Z,51.30
2022-09-03T01:02:53.077Z,51.10
2022-09-03T01:04:49.507Z,51.30
2022-09-03T01:06:37.702Z,51.50
2022-09-03T01:08:37.019Z,51.30
2022-09-03T01:10:27.521Z,51.60
2022-09-03T01:12:15.573Z,51.50
2022-09-03T01:14:06.991Z,51.60
2022-09-03T01:15:59.404Z,51.60
2022-09-03T01:17:51.045Z,51.70
2022-09-03T01:20:09.243Z,51.70
2022-09-03T01:22:21.082Z,51.80
2022-09-03T01:24:29.851Z,51.70
2022-09-03T01:26:24.911Z,52.00
2022-09-03T01:28:20.088Z,51.90
2022-09-03T01:30:06.205Z,51.90
2022-09-03T01:31:51.760Z,51.80
2022-09-03T01:33:35.015Z,51.80
2022-09-03T01:35:20.629Z,51.80
2022-09-03T01:37:08.963Z,52.10
2022-09-03T01:38:52.355Z,52.10
2022-09-03T01:40:39.475Z,52.00
2022-09-03T01:42:28.487Z,52.20
2022-09-03T01:44:16.710Z,52.30
2022-09-03T01:46:00.526Z,52.20
2022-09-03T01:47:51.427Z,53.00
2022-09-03T01:49:35.354Z,52.30
2022-09-03T01:51:20.936Z,52.20
2022-09-03T01:53:03.107Z,52.30
2022-09-03T01:55:07.084Z,52.40
2022-09-03T01:57:19.133Z,52.60
2022-09-03T01:59:21.066Z,52.50
2022-09-03T02:01:04.078Z,52.50
2022-09-03T02:02:39.061Z,52.40
2022-09-03T02:04:24.392Z,52.50
2022-09-03T02:05:58.673Z,52.70
2022-09-03T02:07:34.871Z,52.50
2022-09-03T02:09:08.224Z,52.70
2022-09-03T02:10:46.503Z,52.70
2022-09-03T02:12:21.784Z,52.90
2022-09-03T02:13:59.830Z,52.70
2022-09-03T02:15:37.586Z,53.00
2022-09-03T02:17:12.563Z,53.00
2022-09-03T02:18:52.043Z,53.00
2022-09-03T02:20:29.708Z,53.00
2022-09-03T02:22:03.187Z,52.90
2022-09-03T02:23:36.959Z,52.90
2022-09-03T02:25:10.989Z,52.90
2022-09-03T02:26:44.717Z,53.00
2022-09-03T02:28:18.611Z,53.10
2022-09-03T02:29:51.508Z,53.20
2022-09-03T02:31:27.619Z,53.30
2022-09-03T02:33:01.923Z,53.20
2022-09-03T02:34:35.418Z,53.20
2022-09-03T02:36:12.704Z,53.20
2022-09-03T02:37:46.535Z,53.20
2022-09-03T02:39:19.930Z,53.30
2022-09-03T02:40:54.330Z,53.20
2022-09-03T02:42:27.974Z,53.20
2022-09-03T02:44:08.342Z,53.20
2022-09-03T02:45:48.691Z,53.20
2022-09-03T02:47:30.700Z,53.20
2022-09-03T02:49:04.139Z,53.20
2022-09-03T02:50:42.636Z,53.20
2022-09-03T02:52:17.084Z,53.30
2022-09-03T02:53:49.731Z,53.20
2022-09-03T02:55:24.254Z,53.20
2022-09-03T02:56:57.664Z,53.20
2022-09-03T02:58:32.501Z,53.10
2022-09-03T03:00:43.559Z,53.20
2022-09-03T03:02:16.943Z,53.40
2022-09-03T03:03:52.186Z,53.10
2022-09-03T03:05:36.543Z,53.10
2022-09-03T03:07:10.287Z,53.10
2022-09-03T03:08:44.304Z,53.10
2022-09-03T03:10:17.938Z,53.10
2022-09-03T03:11:51.243Z,53.10
2022-09-03T03:13:24.606Z,53.20
2022-09-03T03:14:58.203Z,53.20
2022-09-03T03:16:32.007Z,53.20
2022-09-03T03:18:05.951Z,53.20
2022-09-03T03:19:41.195Z,53.80
2022-09-03T03:21:18.763Z,53.40
2022-09-03T03:22:51.765Z,53.30
2022-09-03T03:24:25.232Z,53.40
2022-09-03T03:26:03.426Z,53.40
2022-09-03T03:27:42.482Z,53.60
2022-09-03T03:29:18.453Z,53.50
2022-09-03T03:30:52.833Z,53.60
2022-09-03T03:32:26.359Z,53.60
2022-09-03T03:34:02.394Z,53.70
2022-09-03T03:35:38.089Z,53.80
2022-09-03T03:37:11.628Z,53.80
2022-09-03T03:38:46.499Z,53.70
2022-09-03T03:40:20.469Z,53.70
2022-09-03T03:41:54.032Z,53.70
2022-09-03T03:43:27.383Z,53.80
2022-09-03T03:45:02.477Z,53.80
2022-09-03T03:46:39.177Z,53.70
2022-09-03T03:48:12.853Z,53.80
2022-09-03T03:49:46.230Z,53.70
2022-09-03T03:51:21.486Z,53.70
2022-09-03T03:52:54.871Z,53.80
2022-09-03T03:54:28.160Z,53.80
2022-09-03T03:56:03.926Z,53.80
2022-09-03T03:57:37.611Z,53.90
2022-09-03T03:59:11.178Z,54.00
2022-09-03T04:00:45.159Z,53.90
2022-09-03T04:02:19.939Z,53.90
2022-09-03T04:03:56.587Z,54.00
2022-09-03T04:05:33.679Z,54.00
2022-09-03T04:07:09.749Z,54.00
2022-09-03T04:08:46.736Z,54.10
2022-09-03T04:10:20.203Z,54.10
2022-09-03T04:11:53.584Z,54.10
2022-09-03T04:13:31.559Z,54.00
2022-09-03T04:15:06.763Z,54.20
2022-09-03T04:16:40.234Z,54.10
2022-09-03T04:18:14.383Z,54.10
2022-09-03T04:19:48.691Z,54.10
2022-09-03T04:21:25.418Z,54.10
2022-09-03T04:23:05.338Z,54.20
2022-09-03T04:24:38.999Z,54.20
2022-09-03T04:26:15.897Z,54.00
2022-09-03T04:27:49.615Z,54.20
2022-09-03T04:29:23.103Z,54.20
2022-09-03T04:31:01.001Z,54.20
2022-09-03T04:32:52.458Z,54.20
2022-09-03T04:34:26.383Z,54.20
2022-09-03T04:36:11.967Z,54.20
2022-09-03T04:37:44.389Z,54.50
2022-09-03T04:39:19.085Z,54.30
2022-09-03T04:40:53.995Z,54.40
2022-09-03T04:42:27.258Z,54.40
2022-09-03T04:44:01.411Z,54.50
2022-09-03T04:45:33.845Z,54.50
2022-09-03T04:47:07.537Z,54.50
2022-09-03T04:48:41.350Z,54.50
2022-09-03T04:50:14.983Z,54.50
2022-09-03T04:51:48.431Z,54.60
2022-09-03T04:53:22.637Z,54.60
2022-09-03T04:54:57.560Z,54.70
2022-09-03T04:56:34.418Z,54.80
2022-09-03T04:58:08.757Z,54.90
2022-09-03T04:59:42.740Z,54.90
2022-09-03T05:01:20.436Z,54.90
2022-09-03T05:02:54.111Z,54.90
2022-09-03T05:04:27.844Z,54.90
2022-09-03T05:06:01.827Z,54.80
2022-09-03T05:07:38.783Z,54.80
2022-09-03T05:09:12.410Z,54.80
2022-09-03T05:10:47.081Z,54.80
2022-09-03T05:12:23.067Z,54.80
2022-09-03T05:13:59.610Z,54.80
2022-09-03T05:15:34.749Z,54.90
2022-09-03T05:17:08.119Z,54.90
2022-09-03T05:18:42.484Z,54.90
2022-09-03T05:20:15.243Z,55.00
2022-09-03T05:21:49.295Z,55.00
2022-09-03T05:23:22.372Z,55.10
2022-09-03T05:24:56.249Z,55.10
2022-09-03T05:26:34.156Z,55.00
2022-09-03T05:28:07.916Z,55.20
2022-09-03T05:29:41.819Z,55.00
2022-09-03T05:31:17.956Z,55.10
2022-09-03T05:32:52.125Z,55.20
2022-09-03T05:34:24.530Z,55.10
2022-09-03T05:36:03.622Z,55.20
2022-09-03T05:37:37.470Z,56.10
2022-09-03T05:39:11.311Z,55.40
2022-09-03T05:40:45.160Z,55.50
2022-09-03T05:42:20.067Z,55.50
2022-09-03T05:43:56.653Z,55.50
2022-09-03T05:45:32.373Z,55.50
2022-09-03T05:47:06.361Z,55.60
2022-09-03T05:48:40.665Z,55.70
2022-09-03T05:50:14.056Z,55.70
2022-09-03T05:51:47.385Z,55.70
2022-09-03T05:53:20.898Z,55.70
2022-09-03T05:54:54.380Z,55.70
2022-09-03T05:56:29.890Z,55.70
2022-09-03T05:58:04.688Z,55.90
2022-09-03T05:59:38.131Z,56.00
2022-09-03T06:01:14.088Z,55.90
2022-09-03T06:02:52.745Z,56.00
2022-09-03T06:04:26.850Z,56.10
2022-09-03T06:06:00.966Z,56.10
2022-09-03T06:07:34.910Z,56.20
2022-09-03T06:09:11.737Z,56.30
2022-09-03T06:10:45.181Z,56.30
2022-09-03T06:12:19.071Z,56.30
2022-09-03T06:13:54.250Z,56.50
2022-09-03T06:15:28.287Z,56.50
2022-09-03T06:17:01.646Z,56.60
2022-09-03T06:18:34.581Z,56.70
2022-09-03T06:20:10.094Z,56.80
2022-09-03T06:21:45.787Z,56.90
2022-09-03T06:23:20.159Z,56.90
2022-09-03T06:24:54.323Z,56.90
2022-09-03T06:26:29.695Z,57.00
2022-09-03T06:28:03.839Z,57.00
2022-09-03T06:29:38.891Z,57.10
2022-09-03T06:31:15.594Z,57.10
2022-09-03T06:32:52.119Z,57.10
2022-09-03T06:34:25.547Z,57.20
2022-09-03T06:35:59.445Z,57.10
2022-09-03T06:37:32.837Z,57.20
2022-09-03T06:39:06.504Z,57.20
2022-09-03T06:40:40.155Z,57.30
2022-09-03T06:42:13.480Z,57.20
2022-09-03T06:43:51.319Z,57.20
2022-09-03T06:45:26.338Z,57.30
2022-09-03T06:47:01.446Z,57.40
2022-09-03T06:48:37.267Z,57.50
2022-09-03T06:50:11.491Z,57.60
2022-09-03T06:51:46.248Z,57.60
2022-09-03T06:53:19.188Z,58.30
2022-09-03T06:54:52.955Z,57.80
2022-09-03T06:56:28.391Z,57.80
2022-09-03T06:58:01.811Z,57.90
2022-09-03T06:59:36.180Z,58.00
2022-09-03T07:01:14.682Z,58.10
2022-09-03T07:02:48.776Z,58.10
2022-09-03T07:04:24.914Z,58.20
2022-09-03T07:06:02.923Z,58.30
2022-09-03T07:07:37.421Z,58.70
2022-09-03T07:09:15.311Z,58.60
2022-09-03T07:10:49.004Z,58.70
2022-09-03T07:12:22.541Z,58.70
2022-09-03T07:13:57.150Z,58.80
2022-09-03T07:15:30.975Z,59.00
2022-09-03T07:17:06.407Z,58.80
2022-09-03T07:18:41.540Z,59.00
2022-09-03T07:20:15.034Z,59.00
2022-09-03T07:21:50.757Z,59.10
2022-09-03T07:23:23.472Z,59.20
2022-09-03T07:24:57.130Z,59.10
2022-09-03T07:26:34.314Z,59.00
2022-09-03T07:28:08.203Z,59.10
2022-09-03T07:29:42.075Z,59.00
2022-09-03T07:31:19.932Z,59.00
2022-09-03T07:32:54.910Z,59.20
2022-09-03T07:34:30.434Z,58.40
2022-09-03T07:36:06.188Z,58.10
2022-09-03T07:37:43.857Z,57.30
2022-09-03T07:39:19.484Z,56.60
2022-09-03T07:41:00.227Z,56.60
2022-09-03T07:42:38.360Z,57.00
2022-09-03T07:44:13.095Z,56.90
2022-09-03T07:45:51.938Z,57.20
2022-09-03T07:47:27.127Z,55.80
2022-09-03T07:49:03.396Z,55.60
2022-09-03T07:50:39.419Z,55.00
2022-09-03T07:52:13.110Z,54.70
2022-09-03T07:53:56.051Z,54.40
2022-09-03T07:55:29.575Z,53.70
2022-09-03T07:57:03.152Z,53.90
2022-09-03T07:58:38.328Z,53.60
2022-09-03T08:00:14.499Z,53.20
2022-09-03T08:01:48.359Z,52.70
2022-09-03T08:03:22.692Z,52.10
2022-09-03T08:04:57.651Z,51.70
2022-09-03T08:06:32.782Z,51.00
2022-09-03T08:08:10.951Z,50.70
2022-09-03T08:09:49.771Z,50.30
2022-09-03T08:11:22.391Z,49.80
2022-09-03T08:12:55.958Z,49.50
2022-09-03T08:14:31.624Z,49.10
2022-09-03T08:16:05.757Z,48.90
2022-09-03T08:17:39.827Z,48.40
2022-09-03T08:19:18.141Z,48.20
2022-09-03T08:20:52.206Z,47.70
2022-09-03T08:22:26.663Z,47.40
2022-09-03T08:24:02.716Z,47.30
2022-09-03T08:25:36.212Z,46.90
2022-09-03T08:27:10.432Z,46.60
2022-09-03T08:28:45.531Z,46.60
2022-09-03T08:30:19.725Z,46.30
2022-09-03T08:31:55.345Z,46.00
2022-09-03T08:33:42.472Z,45.60
2022-09-03T08:35:16.863Z,45.20
2022-09-03T08:36:53.124Z,45.10
2022-09-03T08:38:25.965Z,44.80
2022-09-03T08:40:00.253Z,44.60
2022-09-03T08:42:12.566Z,44.40
2022-09-03T08:44:26.035Z,43.80
2022-09-03T08:46:00.057Z,43.30
2022-09-03T08:47:39.954Z,43.90
2022-09-03T08:49:17.927Z,43.40
2022-09-03T08:51:00.088Z,43.20
2022-09-03T08:52:43.845Z,43.20
2022-09-03T08:54:25.126Z,42.70
2022-09-03T08:56:06.418Z,42.90
2022-09-03T08:57:48.088Z,42.60
2022-09-03T08:59:22.327Z,42.20
2022-09-03T09:01:17.894Z,42.20
2022-09-03T09:03:17.283Z,42.70
2022-09-03T09:05:03.700Z,42.00
2022-09-03T09:06:54.193Z,42.00
2022-09-03T09:08:44.444Z,42.20
2022-09-03T09:10:29.309Z,42.30
2022-09-03T09:12:22.103Z,42.30
2022-09-03T09:14:04.988Z,42.00
2022-09-03T09:15:52.109Z,42.10
2022-09-03T09:17:52.326Z,42.20
2022-09-03T09:19:44.183Z,41.10
2022-09-03T09:21:27.637Z,41.00
2022-09-03T09:23:06.660Z,41.00
2022-09-03T09:24:46.271Z,40.70
2022-09-03T09:26:23.206Z,40.70
2022-09-03T09:28:03.949Z,40.70
2022-09-03T09:29:38.851Z,40.50
2022-09-03T09:31:18.612Z,40.70
2022-09-03T09:32:52.065Z,40.50
2022-09-03T09:34:26.258Z,40.60
2022-09-03T09:36:02.998Z,40.20
2022-09-03T09:37:48.486Z,39.50
2022-09-03T09:39:23.440Z,39.40
2022-09-03T09:41:10.663Z,39.40
2022-09-03T09:42:44.093Z,39.40
2022-09-03T09:44:23.063Z,39.30
2022-09-03T09:46:09.431Z,38.60
2022-09-03T09:47:43.543Z,39.20
2022-09-03T09:49:35.183Z,38.80
2022-09-03T09:51:14.130Z,38.00
2022-09-03T09:52:48.159Z,38.70
2022-09-03T09:54:28.141Z,38.70
2022-09-03T09:56:03.938Z,38.10
2022-09-03T09:57:39.646Z,38.00
2022-09-03T09:59:16.028Z,38.00
2022-09-03T10:01:03.483Z,37.70
2022-09-03T10:02:40.237Z,37.00
2022-09-03T10:04:24.485Z,37.70
2022-09-03T10:06:28.206Z,37.70
2022-09-03T10:08:05.153Z,37.10
2022-09-03T10:09:38.722Z,37.20
2022-09-03T10:11:14.244Z,37.00
2022-09-03T10:12:59.478Z,36.80
2022-09-03T10:14:43.537Z,36.50
2022-09-03T10:16:28.802Z,36.30
2022-09-03T10:18:12.323Z,36.10
2022-09-03T10:20:18.886Z,36.10
2022-09-03T10:22:03.475Z,36.10
2022-09-03T10:23:51.552Z,36.20
2022-09-03T10:25:30.341Z,35.90
2022-09-03T10:27:05.374Z,35.80
2022-09-03T10:28:42.280Z,35.80
2022-09-03T10:30:16.490Z,35.60
2022-09-03T10:32:23.670Z,35.70
2022-09-03T10:34:05.799Z,35.40
2022-09-03T10:35:47.178Z,35.60
2022-09-03T10:37:30.172Z,35.10
2022-09-03T10:39:16.039Z,35.20
2022-09-03T10:41:04.234Z,35.00
2022-09-03T10:42:47.711Z,35.10
2022-09-03T10:44:49.379Z,34.70
2022-09-03T10:46:30.313Z,34.20
2022-09-03T10:48:29.393Z,34.70
2022-09-03T10:50:17.047Z,34.40
2022-09-03T10:52:03.268Z,34.00
2022-09-03T10:54:28.950Z,33.80
2022-09-03T10:56:10.020Z,33.70
2022-09-03T10:57:54.405Z,33.90
2022-09-03T10:59:43.311Z,33.70
2022-09-03T11:01:34.013Z,34.10
2022-09-03T11:03:45.563Z,33.60
2022-09-03T11:05:24.942Z,33.70
2022-09-03T11:07:05.239Z,34.20
2022-09-03T11:08:45.804Z,34.20
2022-09-03T11:10:24.974Z,34.20
2022-09-03T11:12:12.997Z,34.10
2022-09-03T11:13:54.005Z,34.00
2022-09-03T11:15:33.722Z,34.60
2022-09-03T11:17:14.948Z,34.00
2022-09-03T11:18:52.895Z,33.80
2022-09-03T11:20:27.975Z,33.90
2022-09-03T11:22:02.733Z,34.70
2022-09-03T11:23:44.182Z,34.10
2022-09-03T11:25:23.766Z,34.10
2022-09-03T11:27:12.243Z,34.10
2022-09-03T11:28:58.284Z,34.10
2022-09-03T11:30:49.636Z,34.30
2022-09-03T11:32:41.687Z,34.20
2022-09-03T11:34:31.924Z,34.50
2022-09-03T11:36:08.755Z,34.50
2022-09-03T11:37:55.767Z,34.60
2022-09-03T11:39:42.933Z,34.50
2022-09-03T11:41:26.941Z,34.60
2022-09-03T11:43:13.687Z,35.00
2022-09-03T11:44:52.637Z,35.30
2022-09-03T11:46:31.933Z,35.80
2022-09-03T11:48:31.521Z,35.60
2022-09-03T11:50:21.260Z,35.90
2022-09-03T11:52:03.120Z,36.00
2022-09-03T11:53:36.950Z,36.00
2022-09-03T11:55:10.259Z,36.20
2022-09-03T11:56:44.199Z,36.20
2022-09-03T11:58:33.148Z,36.40
2022-09-03T12:00:14.150Z,36.60
2022-09-03T12:01:53.999Z,36.80
2022-09-03T12:03:38.891Z,36.70
2022-09-03T12:05:31.968Z,36.80
2022-09-03T12:07:44.055Z,36.60
2022-09-03T12:09:53.115Z,36.60
2022-09-03T12:11:45.729Z,36.10
2022-09-03T12:13:49.242Z,36.00
2022-09-03T12:15:52.910Z,35.70
2022-09-03T12:17:35.702Z,35.40
2022-09-03T12:19:22.684Z,35.30
2022-09-03T12:21:06.452Z,35.30
2022-09-03T12:22:41.222Z,35.10
2022-09-03T12:24:15.293Z,35.20
2022-09-03T12:25:49.259Z,35.20
2022-09-03T12:27:25.409Z,35.30
2022-09-03T12:29:01.310Z,35.40
2022-09-03T12:30:38.653Z,35.30
2022-09-03T12:32:15.149Z,35.40
2022-09-03T12:33:51.347Z,35.40
2022-09-03T12:40:04.543Z,35.10
2022-09-03T12:41:28.232Z,35.50
2022-09-03T12:45:13.103Z,35.20
2022-09-03T12:46:48.288Z,35.40
2022-09-03T12:48:23.770Z,35.50
2022-09-03T12:50:07.308Z,35.60
2022-09-03T12:51:51.407Z,35.70
2022-09-03T12:53:29.978Z,35.60
2022-09-03T12:55:21.002Z,35.70
2022-09-03T12:56:59.612Z,35.90
2022-09-03T12:58:38.342Z,36.00
2022-09-03T13:00:18.413Z,36.10
2022-09-03T13:01:59.405Z,36.30
2022-09-03T13:03:45.563Z,36.40
2022-09-03T13:05:23.479Z,37.20
2022-09-03T13:07:05.121Z,36.70
2022-09-03T13:08:48.832Z,37.00
2022-09-03T13:10:29.831Z,37.00
2022-09-03T13:12:05.990Z,37.10
2022-09-03T13:13:40.700Z,37.10
2022-09-03T13:15:23.475Z,37.00
2022-09-03T13:17:33.133Z,37.30
2022-09-03T13:19:19.278Z,37.40
2022-09-03T13:21:13.179Z,37.40
2022-09-03T13:23:03.449Z,37.40
2022-09-03T13:25:10.911Z,37.40
2022-09-03T13:26:59.390Z,37.30
2022-09-03T13:28:58.379Z,37.40
2022-09-03T13:30:41.336Z,37.60
2022-09-03T13:32:31.636Z,37.50
2022-09-03T13:34:18.411Z,37.40
2022-09-03T13:36:02.275Z,37.30
2022-09-03T13:37:43.406Z,37.20
2022-09-03T13:39:28.456Z,37.30
2022-09-03T13:41:20.207Z,37.50
2022-09-03T13:43:02.663Z,37.50
2022-09-03T13:44:45.600Z,37.50
2022-09-03T13:46:29.117Z,37.90
2022-09-03T13:48:33.468Z,37.80
2022-09-03T13:50:23.788Z,38.30
2022-09-03T13:52:04.618Z,38.60
2022-09-03T13:54:04.410Z,38.10
2022-09-03T13:55:48.142Z,37.80
2022-09-03T13:57:36.169Z,37.80
2022-09-03T13:59:20.077Z,37.70
2022-09-03T14:01:11.577Z,37.60
2022-09-03T14:02:56.933Z,37.70
2022-09-03T14:04:50.256Z,38.40
2022-09-03T14:06:42.034Z,37.80
2022-09-03T14:08:28.951Z,37.70
2022-09-03T14:10:20.022Z,37.50
2022-09-03T14:12:06.302Z,37.40
2022-09-03T14:13:55.935Z,37.20
2022-09-03T14:15:38.788Z,36.80
2022-09-03T14:17:24.627Z,36.80
2022-09-03T14:19:06.448Z,36.70
2022-09-03T14:20:54.976Z,36.80
2022-09-03T14:22:47.263Z,36.50
2022-09-03T14:24:30.595Z,36.50
2022-09-03T14:26:08.175Z,36.50
2022-09-03T14:27:41.592Z,36.10
2022-09-03T14:29:18.972Z,36.20
2022-09-03T14:31:02.777Z,36.10
2022-09-03T14:32:53.097Z,35.90
2022-09-03T14:34:44.858Z,35.70
2022-09-03T14:36:31.334Z,35.70
2022-09-03T14:38:42.892Z,35.50
2022-09-03T14:40:20.898Z,35.50
2022-09-03T14:42:38.630Z,35.70
2022-09-03T14:44:50.888Z,35.70
2022-09-03T14:46:47.287Z,35.90
2022-09-03T14:48:48.887Z,35.70
2022-09-03T14:50:45.971Z,35.80
2022-09-03T14:53:06.149Z,36.40
2022-09-03T14:55:22.319Z,36.40
2022-09-03T14:57:18.093Z,36.60
2022-09-03T14:59:25.980Z,36.40
2022-09-03T15:01:05.440Z,36.80
2022-09-03T15:03:23.542Z,36.60
2022-09-03T15:05:15.865Z,36.80
2022-09-03T15:07:09.737Z,36.80
2022-09-03T15:09:23.642Z,36.80
2022-09-03T15:11:02.265Z,36.90
2022-09-03T15:12:43.763Z,37.00
2022-09-03T15:14:27.222Z,37.00
2022-09-03T15:16:20.290Z,37.20
2022-09-03T15:18:16.306Z,37.90
2022-09-03T15:20:06.746Z,37.40
2022-09-03T15:22:09.587Z,37.20
2022-09-03T15:24:04.831Z,37.30
2022-09-03T15:25:54.248Z,37.50
2022-09-03T15:27:55.351Z,37.70
2022-09-03T15:29:47.936Z,37.80
2022-09-03T15:31:28.340Z,37.90
2022-09-03T15:33:17.064Z,38.00
2022-09-03T15:35:06.971Z,38.00
2022-09-03T15:36:48.560Z,38.00
2022-09-03T15:38:36.319Z,38.00
2022-09-03T15:40:28.850Z,38.10
2022-09-03T15:42:11.823Z,38.10
2022-09-03T15:43:51.931Z,38.20
2022-09-03T15:45:39.466Z,38.40
2022-09-03T15:47:35.252Z,38.60
2022-09-03T15:49:45.738Z,38.60
2022-09-03T15:51:27.865Z,38.80
2022-09-03T15:53:07.835Z,38.50
2022-09-03T15:54:54.511Z,38.50
2022-09-03T15:56:38.478Z,38.50
2022-09-03T15:58:25.445Z,38.70
2022-09-03T16:00:04.274Z,38.70
2022-09-03T16:02:04.728Z,38.90
2022-09-03T16:03:59.397Z,38.90
2022-09-03T16:05:43.549Z,38.90
2022-09-03T16:07:27.406Z,39.00
2022-09-03T16:09:18.767Z,38.80
2022-09-03T16:11:06.388Z,38.90
2022-09-03T16:12:53.789Z,38.80
2022-09-03T16:14:35.662Z,39.00
2022-09-03T16:16:14.752Z,39.30
2022-09-03T16:18:02.672Z,39.20
2022-09-03T16:19:47.844Z,39.20
2022-09-03T16:21:31.250Z,39.50
2022-09-03T16:23:13.998Z,39.30
2022-09-03T16:24:56.525Z,39.30
2022-09-03T16:26:36.490Z,39.40
2022-09-03T16:28:17.873Z,39.50
2022-09-03T16:30:03.111Z,39.40
2022-09-03T16:32:00.728Z,39.60
2022-09-03T16:33:48.867Z,39.60
2022-09-03T16:35:41.416Z,39.40
2022-09-03T16:37:29.982Z,39.70
2022-09-03T16:39:15.291Z,40.30
2022-09-03T16:40:57.859Z,39.10
2022-09-03T16:42:42.776Z,39.60
2022-09-03T16:44:28.200Z,39.30
2022-09-03T16:46:21.940Z,39.90
2022-09-03T16:48:26.024Z,39.40
2022-09-03T16:50:19.062Z,39.60
2022-09-03T16:51:58.747Z,39.40
2022-09-03T16:53:59.775Z,39.40
2022-09-03T16:55:54.638Z,39.50
2022-09-03T16:57:54.298Z,39.50
2022-09-03T17:00:00.233Z,39.80
2022-09-03T17:02:02.523Z,39.90
2022-09-03T17:04:25.004Z,39.80
2022-09-03T17:06:35.323Z,39.70
2022-09-03T17:08:25.829Z,39.80
2022-09-03T17:10:10.702Z,39.90
2022-09-03T17:12:02.788Z,39.80
2022-09-03T17:14:00.483Z,39.90
2022-09-03T17:15:43.776Z,40.20
2022-09-03T17:17:36.157Z,40.00
2022-09-03T17:19:22.007Z,40.10
2022-09-03T17:21:13.971Z,40.30
2022-09-03T17:23:09.603Z,41.10
2022-09-03T17:24:54.796Z,40.50
2022-09-03T17:26:39.007Z,40.30
2022-09-03T17:28:31.324Z,40.40
2022-09-03T17:30:10.331Z,40.50
2022-09-03T17:31:55.129Z,40.50
2022-09-03T17:33:55.715Z,40.60
2022-09-03T17:35:42.955Z,40.70
2022-09-03T17:37:34.774Z,40.70
2022-09-03T17:39:49.619Z,41.10
2022-09-03T17:41:37.309Z,41.60
2022-09-03T17:43:24.268Z,41.50
2022-09-03T17:45:16.213Z,41.60
2022-09-03T17:47:08.534Z,41.60
2022-09-03T17:48:54.511Z,41.50
2022-09-03T17:50:36.516Z,41.60
2022-09-03T17:52:27.447Z,41.60
2022-09-03T17:54:09.651Z,42.50
2022-09-03T17:55:54.449Z,42.40
2022-09-03T17:57:33.206Z,41.80
2022-09-03T17:59:17.562Z,41.60
2022-09-03T18:01:02.287Z,41.70
2022-09-03T18:02:43.379Z,42.10
2022-09-03T18:04:35.076Z,42.10
2022-09-03T18:06:20.367Z,42.10
2022-09-03T18:08:03.773Z,42.10
2022-09-03T18:09:47.107Z,42.00
2022-09-03T18:11:35.939Z,42.30
2022-09-03T18:13:25.983Z,42.60
2022-09-03T18:15:10.517Z,42.60
2022-09-03T18:16:53.905Z,42.70
2022-09-03T18:18:30.792Z,42.70
2022-09-03T18:20:27.974Z,42.90
2022-09-03T18:22:24.291Z,43.20
2022-09-03T18:24:26.316Z,43.30
2022-09-03T18:26:24.826Z,43.30
2022-09-03T18:28:24.070Z,43.20
2022-09-03T18:30:24.319Z,43.30
2022-09-03T18:32:15.412Z,43.50
2022-09-03T18:34:06.556Z,43.60
2022-09-03T18:35:57.530Z,43.60
2022-09-03T18:37:48.512Z,43.80
2022-09-03T18:39:47.352Z,43.90
2022-09-03T18:42:05.527Z,44.10
2022-09-03T18:44:08.522Z,44.50
2022-09-03T18:48:32.404Z,44.40
2022-09-03T18:50:37.184Z,44.90
2022-09-03T18:52:37.180Z,44.40
2022-09-03T18:55:07.227Z,44.50
2022-09-03T18:57:03.759Z,44.80
2022-09-03T18:59:14.439Z,44.60
2022-09-03T19:01:20.737Z,44.90
2022-09-03T19:03:52.363Z,45.00
2022-09-03T19:05:53.652Z,45.30
2022-09-03T19:07:59.945Z,45.10
2022-09-03T19:10:12.548Z,45.30
2022-09-03T19:12:31.345Z,45.50
2022-09-03T19:14:37.553Z,45.50
2022-09-03T19:16:35.577Z,45.50
2022-09-03T19:18:45.302Z,45.50
2022-09-03T19:20:45.171Z,45.90
2022-09-03T19:22:47.799Z,45.90
2022-09-03T19:24:47.187Z,46.10
2022-09-03T19:26:52.610Z,46.00
2022-09-03T19:29:00.857Z,46.10
2022-09-03T19:31:14.545Z,46.10
2022-09-03T19:33:22.294Z,46.50
2022-09-03T19:35:33.014Z,46.50
2022-09-03T19:37:36.911Z,46.70
2022-09-03T19:39:53.486Z,46.70
2022-09-03T19:41:53.447Z,47.20
2022-09-03T19:43:54.819Z,47.00
2022-09-03T19:46:05.475Z,47.20
2022-09-03T19:48:13.725Z,47.30
2022-09-03T19:50:21.763Z,47.30
2022-09-03T19:52:25.119Z,47.70
2022-09-03T19:54:22.345Z,47.70
2022-09-03T19:56:15.942Z,47.60
2022-09-03T19:58:39.168Z,47.70
2022-09-03T20:00:36.535Z,47.80
2022-09-03T20:02:30.181Z,47.80
2022-09-03T20:04:31.866Z,47.90
2022-09-03T20:06:26.030Z,48.20
2022-09-03T20:08:19.335Z,48.10
2022-09-03T20:10:12.192Z,48.20
2022-09-03T20:11:48.951Z,48.30
2022-09-03T20:13:22.523Z,48.40
2022-09-03T20:14:55.143Z,48.60
2022-09-03T20:16:37.031Z,48.70
2022-09-03T20:18:24.504Z,48.90
2022-09-03T20:20:15.219Z,49.10
2022-09-03T20:21:56.343Z,49.10
2022-09-03T20:23:37.342Z,49.00
2022-09-03T20:25:30.330Z,49.10
2022-09-03T20:27:19.111Z,49.30
2022-09-03T20:29:20.543Z,49.30
2022-09-03T20:31:03.895Z,49.60
2022-09-03T20:33:16.255Z,49.50
2022-09-03T20:35:09.204Z,49.50
2022-09-03T20:36:56.515Z,49.50
2022-09-03T20:39:20.387Z,49.40
2022-09-03T20:41:11.946Z,49.60
2022-09-03T20:43:29.347Z,49.40
2022-09-03T20:45:10.851Z,49.80
2022-09-03T20:47:04.539Z,49.60
2022-09-03T20:48:54.381Z,49.90
2022-09-03T20:50:53.225Z,50.00
2022-09-03T20:52:45.682Z,50.10
2022-09-03T20:54:31.897Z,50.20
2022-09-03T20:56:16.662Z,50.10
2022-09-03T20:58:03.052Z,50.30
2022-09-03T20:59:59.335Z,50.50
2022-09-03T21:01:48.177Z,50.40
2022-09-03T21:03:31.367Z,50.30
2022-09-03T21:05:18.850Z,51.00
2022-09-03T21:07:02.619Z,50.60
2022-09-03T21:09:02.636Z,50.70
2022-09-03T21:10:49.054Z,50.90
2022-09-03T21:12:38.215Z,50.70
2022-09-03T21:14:32.143Z,50.80
2022-09-03T21:16:22.825Z,51.10
2022-09-03T21:18:07.823Z,51.10
2022-09-03T21:20:00.677Z,51.10
2022-09-03T21:21:53.300Z,51.30
2022-09-03T21:23:34.833Z,51.40
2022-09-03T21:25:15.807Z,51.30
2022-09-03T21:26:57.049Z,51.40
2022-09-03T21:28:40.272Z,51.50
2022-09-03T21:30:18.239Z,51.80
2022-09-03T21:31:59.537Z,51.70
2022-09-03T21:33:39.840Z,51.80
2022-09-03T21:35:24.504Z,51.80
2022-09-03T21:37:02.023Z,52.10
2022-09-03T21:38:39.506Z,52.00
2022-09-03T21:40:18.943Z,52.10
2022-09-03T21:42:07.984Z,52.20
2022-09-03T21:43:51.597Z,52.40
2022-09-03T21:45:33.020Z,52.50
2022-09-03T21:47:12.598Z,52.60
2022-09-03T21:48:53.798Z,53.20
2022-09-03T21:50:40.948Z,52.80
2022-09-03T21:52:23.208Z,52.80
2022-09-03T21:54:04.098Z,52.90
2022-09-03T21:55:56.960Z,52.90
2022-09-03T21:57:39.441Z,53.10
2022-09-03T21:59:32.168Z,53.00
2022-09-03T22:01:13.046Z,53.20
2022-09-03T22:02:48.035Z,53.20
2022-09-03T22:04:20.918Z,53.10
2022-09-03T22:06:04.090Z,53.20
2022-09-03T22:08:09.091Z,53.40
2022-09-03T22:09:51.611Z,53.80
2022-09-03T22:11:40.064Z,53.60
2022-09-03T22:13:26.516Z,53.50
2022-09-03T22:15:02.360Z,53.70
2022-09-03T22:16:44.350Z,53.60
2022-09-03T22:18:29.146Z,53.90
2022-09-03T22:20:14.583Z,54.00
2022-09-03T22:21:59.779Z,54.20
2022-09-03T22:24:04.068Z,54.10
2022-09-03T22:25:49.344Z,54.10
2022-09-03T22:27:35.460Z,54.00
2022-09-03T22:29:25.970Z,54.60
2022-09-03T22:31:13.981Z,54.00
2022-09-03T22:33:07.419Z,54.00
2022-09-03T22:35:03.876Z,54.00